Time;durP1;ratioP1;P1;durP2;ratioP2;P2;SDS_P1;SDS_P2;PMS_P1;PMS_P2;Temp;Humidity;BMP_temperature;BMP_pressure;BME280_temperature;BME280_humidity;BME280_pressure;Samples;Min_cycle;Max_cycle;Signal;HPM_P1;HPM_P2
2020/12/27 00:02:03;;;;;;;12.55;7.57;;;;;;;;;;5071043;28;20025;-56
2020/12/27 00:04:29;;;;;;;15.38;7.13;;;;;;;;;;5080052;28;20034;-56
2020/12/27 00:06:55;;;;;;;14.32;6.93;;;;;;;;;;5078108;28;20056;-58
2020/12/27 00:09:21;;;;;;;18.38;7.35;;;;;;;;;;5081310;28;20106;-55
2020/12/27 00:11:47;;;;;;;12.20;7.35;;;;;;;;;;5079247;28;20039;-56
2020/12/27 00:14:13;;;;;;;13.25;7.25;;;;;;;;;;5081372;28;20029;-57
2020/12/27 00:16:39;;;;;;;12.63;7.35;;;;;;;;;;5080141;28;20020;-53
2020/12/27 00:19:05;;;;;;;12.75;7.53;;;;;;;;;;5068774;28;20078;-56
2020/12/27 00:21:31;;;;;;;15.43;7.82;;;;;;;;;;5083762;28;20024;-56
2020/12/27 00:23:57;;;;;;;15.93;6.95;;;;;;;;;;5080115;28;20379;-56
2020/12/27 00:26:23;;;;;;;13.63;7.00;;;;;;;;;;5067082;28;20039;-56
2020/12/27 00:28:49;;;;;;;13.32;6.85;;;;;;;;;;5075977;28;20024;-54
2020/12/27 00:31:18;;;;;;;12.27;6.78;;;;;;;;;;5075773;28;20336;-56
2020/12/27 00:33:44;;;;;;;11.20;6.90;;;;;;;;;;5064224;28;20052;-57
2020/12/27 00:36:10;;;;;;;15.15;6.95;;;;;;;;;;5065592;28;20117;-55
2020/12/27 00:38:36;;;;;;;11.40;6.55;;;;;;;;;;5073431;28;20380;-54
2020/12/27 00:41:02;;;;;;;11.88;6.70;;;;;;;;;;5073855;28;20529;-57
2020/12/27 00:43:28;;;;;;;13.82;7.05;;;;;;;;;;5088000;28;20077;-58
2020/12/27 00:45:53;;;;;;;17.30;7.47;;;;;;;;;;5075330;28;20044;-53
2020/12/27 00:48:19;;;;;;;13.95;7.68;;;;;;;;;;5067962;28;20033;-58
2020/12/27 00:50:48;;;;;;;11.13;6.82;;;;;;;;;;5072886;28;20039;-57
2020/12/27 00:53:14;;;;;;;15.60;7.20;;;;;;;;;;5070805;28;20544;-55
2020/12/27 00:55:43;;;;;;;12.27;7.35;;;;;;;;;;5078311;28;20021;-56
2020/12/27 00:58:09;;;;;;;13.07;7.18;;;;;;;;;;5075932;28;20103;-57
2020/12/27 01:00:35;;;;;;;11.93;6.75;;;;;;;;;;5073354;28;20399;-56
2020/12/27 01:03:01;;;;;;;11.85;7.32;;;;;;;;;;5074191;28;20368;-55
2020/12/27 01:05:26;;;;;;;16.60;7.32;;;;;;;;;;5061116;28;21421;-54
2020/12/27 01:07:52;;;;;;;13.63;7.63;;;;;;;;;;5084535;28;20051;-55
2020/12/27 01:10:18;;;;;;;12.38;7.72;;;;;;;;;;5072545;28;20032;-55
2020/12/27 01:12:47;;;;;;;13.40;7.30;;;;;;;;;;5087921;28;20032;-57
2020/12/27 01:15:13;;;;;;;11.13;6.75;;;;;;;;;;5086074;28;20054;-55
2020/12/27 01:17:39;;;;;;;13.20;7.32;;;;;;;;;;5079547;28;20029;-54
2020/12/27 01:20:05;;;;;;;11.77;6.47;;;;;;;;;;5081712;28;20024;-55
2020/12/27 01:22:34;;;;;;;10.60;6.68;;;;;;;;;;5092241;28;20028;-58
2020/12/27 01:25:00;;;;;;;11.48;7.45;;;;;;;;;;5081307;28;20099;-57
2020/12/27 01:27:26;;;;;;;12.55;7.20;;;;;;;;;;5085317;28;20032;-53
2020/12/27 01:29:52;;;;;;;11.32;6.63;;;;;;;;;;5081845;28;20426;-58
2020/12/27 01:32:18;;;;;;;13.10;7.22;;;;;;;;;;5070606;28;20025;-57
2020/12/27 01:34:44;;;;;;;11.98;6.43;;;;;;;;;;5077227;28;20104;-57
2020/12/27 01:37:10;;;;;;;10.63;6.18;;;;;;;;;;5088382;28;20020;-55
2020/12/27 01:39:36;;;;;;;14.43;6.45;;;;;;;;;;5075840;28;20024;-55
2020/12/27 01:42:02;;;;;;;11.73;6.72;;;;;;;;;;5070337;28;20090;-55
2020/12/27 01:44:28;;;;;;;10.73;7.10;;;;;;;;;;5064669;28;20039;-56
2020/12/27 01:46:54;;;;;;;10.07;6.75;;;;;;;;;;5074699;28;20032;-55
2020/12/27 01:49:20;;;;;;;13.43;6.50;;;;;;;;;;5072060;28;20395;-53
2020/12/27 01:51:46;;;;;;;9.40;6.78;;;;;;;;;;5078658;28;20624;-52
2020/12/27 01:54:12;;;;;;;12.25;6.40;;;;;;;;;;5072344;28;20368;-56
2020/12/27 01:56:39;;;;;;;12.60;5.78;;;;;;;;;;5078409;28;20414;-54
2020/12/27 01:59:06;;;;;;;14.45;6.35;;;;;;;;;;5073878;28;20024;-57
2020/12/27 02:01:32;;;;;;;10.50;6.35;;;;;;;;;;5074013;28;20040;-56
2020/12/27 02:04:02;;;;;;;12.27;5.90;;;;;;;;;;5073761;28;20036;-57
2020/12/27 02:06:28;;;;;;;9.88;6.13;;;;;;;;;;5071719;28;20142;-58
2020/12/27 02:08:54;;;;;;;10.98;6.07;;;;;;;;;;5075932;28;20041;-56
2020/12/27 02:11:21;;;;;;;14.27;6.50;;;;;;;;;;5075577;28;20071;-55
2020/12/27 02:13:50;;;;;;;8.30;5.43;;;;;;;;;;5078043;28;20107;-57
2020/12/27 02:16:17;;;;;;;11.63;6.97;;;;;;;;;;5076821;28;20116;-55
2020/12/27 02:18:43;;;;;;;14.02;6.57;;;;;;;;;;5070800;28;20051;-55
2020/12/27 02:21:09;;;;;;;8.32;5.55;;;;;;;;;;5071736;28;20032;-53
2020/12/27 02:23:35;;;;;;;8.38;5.93;;;;;;;;;;5070073;28;20040;-56
2020/12/27 02:26:01;;;;;;;10.38;6.43;;;;;;;;;;5070432;28;20016;-58
2020/12/27 02:28:27;;;;;;;9.32;6.00;;;;;;;;;;5069905;28;20082;-57
2020/12/27 02:30:53;;;;;;;9.80;6.28;;;;;;;;;;5073572;28;20020;-57
2020/12/27 02:33:19;;;;;;;11.80;6.57;;;;;;;;;;5070326;28;20043;-57
2020/12/27 02:35:44;;;;;;;13.13;6.70;;;;;;;;;;5073990;28;20032;-58
2020/12/27 02:38:10;;;;;;;10.27;5.65;;;;;;;;;;5071133;28;20035;-57
2020/12/27 02:40:36;;;;;;;11.68;6.38;;;;;;;;;;5077594;28;20028;-55
2020/12/27 02:43:02;;;;;;;12.95;6.38;;;;;;;;;;5071968;28;20028;-53
2020/12/27 02:45:28;;;;;;;11.10;6.93;;;;;;;;;;5067121;28;20037;-55
2020/12/27 02:47:54;;;;;;;13.18;6.95;;;;;;;;;;5073978;28;20028;-54
2020/12/27 02:50:20;;;;;;;12.02;6.18;;;;;;;;;;5071702;28;20028;-53
2020/12/27 02:52:46;;;;;;;13.98;6.65;;;;;;;;;;5075219;28;20024;-56
2020/12/27 02:55:12;;;;;;;12.38;5.80;;;;;;;;;;5071607;28;20601;-57
2020/12/27 02:57:38;;;;;;;9.93;6.03;;;;;;;;;;5069562;28;20024;-55
2020/12/27 03:00:05;;;;;;;10.85;6.50;;;;;;;;;;5071728;28;20081;-56
2020/12/27 03:02:31;;;;;;;10.30;5.82;;;;;;;;;;5070597;28;20107;-55
2020/12/27 03:04:57;;;;;;;10.68;5.47;;;;;;;;;;5076646;28;20360;-56
2020/12/27 03:07:23;;;;;;;8.90;5.40;;;;;;;;;;5073127;28;20048;-57
2020/12/27 03:09:49;;;;;;;7.63;4.78;;;;;;;;;;5074565;28;20051;-56
2020/12/27 03:12:15;;;;;;;13.10;7.38;;;;;;;;;;5071937;28;20371;-56
2020/12/27 03:14:41;;;;;;;7.78;4.97;;;;;;;;;;5075808;28;20028;-55
2020/12/27 03:17:07;;;;;;;11.35;5.03;;;;;;;;;;5074174;28;20452;-56
2020/12/27 03:19:33;;;;;;;9.32;5.47;;;;;;;;;;5063381;28;20027;-58
2020/12/27 03:21:59;;;;;;;9.25;5.03;;;;;;;;;;5075010;28;20024;-57
2020/12/27 03:24:25;;;;;;;8.90;5.07;;;;;;;;;;5074692;28;20633;-54
2020/12/27 03:26:51;;;;;;;9.90;5.05;;;;;;;;;;5068615;28;20033;-56
2020/12/27 03:29:17;;;;;;;7.47;4.78;;;;;;;;;;5070696;28;20040;-58
2020/12/27 03:31:42;;;;;;;6.72;4.15;;;;;;;;;;5068965;28;20147;-57
2020/12/27 03:34:08;;;;;;;7.90;4.93;;;;;;;;;;5071931;28;20077;-57
2020/12/27 03:36:34;;;;;;;8.48;5.20;;;;;;;;;;5070385;28;20016;-57
2020/12/27 03:39:00;;;;;;;7.75;4.32;;;;;;;;;;5070779;28;20024;-56
2020/12/27 03:41:26;;;;;;;7.55;4.60;;;;;;;;;;5071600;28;20029;-57
2020/12/27 03:43:52;;;;;;;8.80;4.72;;;;;;;;;;5071144;28;20062;-57
2020/12/27 03:46:18;;;;;;;8.45;4.18;;;;;;;;;;5076655;28;20016;-56
2020/12/27 03:48:44;;;;;;;10.38;4.57;;;;;;;;;;5070386;28;20035;-57
2020/12/27 03:51:10;;;;;;;6.28;4.32;;;;;;;;;;5074575;28;20027;-57
2020/12/27 03:53:37;;;;;;;8.13;4.65;;;;;;;;;;5072874;28;20324;-55
2020/12/27 03:56:03;;;;;;;9.40;4.80;;;;;;;;;;5077082;28;20378;-55
2020/12/27 03:58:29;;;;;;;8.40;4.57;;;;;;;;;;5072684;28;20028;-55
2020/12/27 04:00:55;;;;;;;8.27;4.95;;;;;;;;;;5068233;28;20032;-58
2020/12/27 04:03:21;;;;;;;11.30;4.85;;;;;;;;;;5076145;28;20020;-57
2020/12/27 04:05:47;;;;;;;8.38;4.65;;;;;;;;;;5075722;28;20024;-58
2020/12/27 04:08:29;;;;;;;7.30;4.20;;;;;;;;;;5074866;28;20048;-54
2020/12/27 04:10:55;;;;;;;9.90;4.90;;;;;;;;;;5067538;28;20086;-56
2020/12/27 04:13:21;;;;;;;10.10;4.60;;;;;;;;;;5067485;28;20431;-57
2020/12/27 04:15:47;;;;;;;8.95;4.78;;;;;;;;;;5068479;28;20537;-56
2020/12/27 04:18:12;;;;;;;11.95;5.70;;;;;;;;;;5070147;28;20021;-55
2020/12/27 04:20:38;;;;;;;8.02;4.90;;;;;;;;;;5065342;28;20032;-53
2020/12/27 04:23:04;;;;;;;9.43;4.40;;;;;;;;;;5069157;28;20031;-55
2020/12/27 04:25:30;;;;;;;10.95;5.50;;;;;;;;;;5073231;28;20043;-55
2020/12/27 04:27:56;;;;;;;9.48;5.53;;;;;;;;;;5068505;28;20020;-55
2020/12/27 04:30:22;;;;;;;10.50;4.85;;;;;;;;;;5069037;28;20047;-57
2020/12/27 04:32:48;;;;;;;8.35;4.82;;;;;;;;;;5070083;28;20074;-57
2020/12/27 04:35:14;;;;;;;8.13;5.22;;;;;;;;;;5069188;28;20737;-57
2020/12/27 04:37:40;;;;;;;8.73;5.40;;;;;;;;;;5075719;28;20017;-55
2020/12/27 04:40:06;;;;;;;10.70;5.13;;;;;;;;;;5072501;28;20029;-57
2020/12/27 04:42:32;;;;;;;9.32;5.45;;;;;;;;;;5071133;28;20081;-57
2020/12/27 04:44:59;;;;;;;9.00;5.43;;;;;;;;;;5075085;28;20020;-55
2020/12/27 04:47:25;;;;;;;11.23;5.40;;;;;;;;;;5072600;28;20123;-57
2020/12/27 04:49:51;;;;;;;12.18;6.10;;;;;;;;;;5068588;28;20021;-57
2020/12/27 04:52:19;;;;;;;8.10;5.50;;;;;;;;;;5075307;28;20528;-54
2020/12/27 04:54:46;;;;;;;9.75;5.32;;;;;;;;;;5067959;28;20040;-58
2020/12/27 04:57:13;;;;;;;12.90;5.93;;;;;;;;;;5070331;28;20032;-57
2020/12/27 04:59:39;;;;;;;10.65;6.22;;;;;;;;;;5077225;28;20043;-58
2020/12/27 05:02:05;;;;;;;10.85;6.03;;;;;;;;;;5069069;28;20103;-57
2020/12/27 05:04:31;;;;;;;11.05;6.25;;;;;;;;;;5074162;28;20098;-56
2020/12/27 05:06:58;;;;;;;13.05;5.63;;;;;;;;;;5069876;28;20036;-57
2020/12/27 05:09:28;;;;;;;9.23;5.20;;;;;;;;;;5067550;28;20198;-57
2020/12/27 05:11:54;;;;;;;10.13;6.03;;;;;;;;;;5068997;28;20032;-54
2020/12/27 05:14:21;;;;;;;14.25;5.53;;;;;;;;;;5071449;28;20071;-55
2020/12/27 05:16:50;;;;;;;9.60;5.88;;;;;;;;;;5077384;28;21473;-57
2020/12/27 05:19:16;;;;;;;12.35;6.25;;;;;;;;;;5070816;28;20487;-54
2020/12/27 05:21:42;;;;;;;12.45;6.50;;;;;;;;;;5074084;28;20945;-56
2020/12/27 05:24:09;;;;;;;11.43;6.20;;;;;;;;;;5070054;28;20038;-56
2020/12/27 05:26:37;;;;;;;9.75;6.07;;;;;;;;;;5073734;28;20081;-56
2020/12/27 05:29:02;;;;;;;14.23;7.03;;;;;;;;;;5070596;28;20063;-57
2020/12/27 05:31:35;;;;;;;15.75;6.47;;;;;;;;;;5066327;28;20448;-56
2020/12/27 05:34:01;;;;;;;16.52;6.28;;;;;;;;;;5067534;28;20031;-55
2020/12/27 05:36:28;;;;;;;23.25;7.45;;;;;;;;;;5071118;28;20044;-54
2020/12/27 05:38:54;;;;;;;12.05;6.15;;;;;;;;;;5062558;28;20590;-57
2020/12/27 05:41:24;;;;;;;9.95;6.07;;;;;;;;;;5070098;28;20028;-56
2020/12/27 05:43:58;;;;;;;11.25;6.05;;;;;;;;;;5073566;28;20029;-56
2020/12/27 05:46:24;;;;;;;14.88;7.97;;;;;;;;;;5070905;28;20036;-57
2020/12/27 05:48:53;;;;;;;10.85;5.95;;;;;;;;;;5077817;28;20422;-56
2020/12/27 05:51:21;;;;;;;11.23;6.32;;;;;;;;;;5075641;28;20029;-56
2020/12/27 05:53:49;;;;;;;11.60;6.00;;;;;;;;;;5074332;28;20080;-54
2020/12/27 05:56:17;;;;;;;12.73;6.10;;;;;;;;;;5077697;28;20464;-58
2020/12/27 05:58:44;;;;;;;14.10;6.90;;;;;;;;;;5077118;28;20021;-57
2020/12/27 06:01:14;;;;;;;12.50;6.80;;;;;;;;;;5079256;28;20104;-55
2020/12/27 06:03:57;;;;;;;12.98;7.00;;;;;;;;;;5074558;28;20047;-51
2020/12/27 06:06:34;;;;;;;12.15;6.70;;;;;;;;;;5073620;28;20037;-51
2020/12/27 06:09:08;;;;;;;12.80;6.43;;;;;;;;;;5076815;28;20104;-55
2020/12/27 06:11:37;;;;;;;10.02;5.80;;;;;;;;;;5072355;28;20036;-53
2020/12/27 06:14:15;;;;;;;11.10;6.65;;;;;;;;;;5070954;28;20016;-54
2020/12/27 06:16:50;;;;;;;10.82;6.43;;;;;;;;;;5078404;28;20031;-52
2020/12/27 06:19:25;;;;;;;11.23;6.25;;;;;;;;;;5067171;28;20360;-54
2020/12/27 06:22:07;;;;;;;14.43;6.78;;;;;;;;;;5071218;28;20042;-54
2020/12/27 06:24:34;;;;;;;11.27;5.90;;;;;;;;;;5072352;28;20095;-56
2020/12/27 06:27:01;;;;;;;11.68;6.47;;;;;;;;;;5073138;28;20032;-52
2020/12/27 06:29:33;;;;;;;13.63;6.13;;;;;;;;;;5075255;28;20641;-55
2020/12/27 06:32:00;;;;;;;13.98;6.38;;;;;;;;;;5066913;28;20032;-48
2020/12/27 06:34:27;;;;;;;12.75;6.15;;;;;;;;;;5071852;28;20040;-54
2020/12/27 06:36:53;;;;;;;14.80;6.55;;;;;;;;;;5076684;28;20032;-51
2020/12/27 06:39:29;;;;;;;10.65;6.30;;;;;;;;;;5073004;28;20043;-54
2020/12/27 06:42:24;;;;;;;12.85;6.20;;;;;;;;;;5072137;28;20040;-54
2020/12/27 06:44:50;;;;;;;13.25;6.65;;;;;;;;;;5063042;28;20041;-55
2020/12/27 06:47:17;;;;;;;10.75;6.32;;;;;;;;;;5079143;28;20025;-55
2020/12/27 06:49:44;;;;;;;13.93;6.70;;;;;;;;;;5064250;28;20090;-55
2020/12/27 06:52:19;;;;;;;12.25;6.38;;;;;;;;;;5065711;28;20035;-51
2020/12/27 06:54:47;;;;;;;13.60;5.70;;;;;;;;;;5077953;28;20053;-54
2020/12/27 06:57:33;;;;;;;13.43;6.38;;;;;;;;;;5073927;28;20021;-54
2020/12/27 07:00:17;;;;;;;11.50;6.20;;;;;;;;;;5071655;28;20086;-56
2020/12/27 07:02:44;;;;;;;13.80;6.10;;;;;;;;;;5076662;28;20043;-54
2020/12/27 07:05:10;;;;;;;10.38;5.55;;;;;;;;;;5069608;28;20058;-55
2020/12/27 07:07:46;;;;;;;12.05;5.80;;;;;;;;;;5067891;28;20045;-52
2020/12/27 07:10:15;;;;;;;12.20;6.07;;;;;;;;;;5074439;28;20029;-54
2020/12/27 07:12:42;;;;;;;12.43;5.85;;;;;;;;;;5069331;28;20111;-51
2020/12/27 07:15:10;;;;;;;13.63;5.68;;;;;;;;;;5061700;28;20025;-52
2020/12/27 07:17:36;;;;;;;11.60;5.28;;;;;;;;;;5072482;28;20024;-54
2020/12/27 07:20:03;;;;;;;11.60;5.70;;;;;;;;;;5076484;28;20044;-56
2020/12/27 07:22:30;;;;;;;9.45;5.30;;;;;;;;;;5069930;28;20020;-52
2020/12/27 07:25:00;;;;;;;12.05;5.63;;;;;;;;;;5078241;28;20058;-54
2020/12/27 07:27:29;;;;;;;7.63;4.95;;;;;;;;;;5073390;28;20029;-56
2020/12/27 07:29:59;;;;;;;9.40;4.82;;;;;;;;;;5071121;28;20621;-54
2020/12/27 07:32:25;;;;;;;12.15;5.78;;;;;;;;;;5065573;28;20039;-54
2020/12/27 07:34:51;;;;;;;9.25;4.80;;;;;;;;;;5067126;28;20033;-54
2020/12/27 07:37:22;;;;;;;8.07;4.35;;;;;;;;;;5069837;28;20074;-50
2020/12/27 07:39:48;;;;;;;8.50;4.53;;;;;;;;;;5070062;28;20071;-53
2020/12/27 07:42:34;;;;;;;9.35;4.90;;;;;;;;;;5078305;28;21061;-55
2020/12/27 07:45:01;;;;;;;9.02;4.15;;;;;;;;;;5074143;28;20024;-55
2020/12/27 07:47:28;;;;;;;10.80;4.88;;;;;;;;;;5072183;28;20032;-53
2020/12/27 07:50:07;;;;;;;8.70;3.90;;;;;;;;;;5074460;28;20433;-52
2020/12/27 07:52:43;;;;;;;11.55;4.45;;;;;;;;;;5066572;28;20078;-51
2020/12/27 07:55:09;;;;;;;9.93;4.82;;;;;;;;;;5071516;28;20128;-51
2020/12/27 07:57:36;;;;;;;7.00;3.63;;;;;;;;;;5067021;28;20021;-55
2020/12/27 08:00:08;;;;;;;7.13;3.25;;;;;;;;;;5078453;28;20020;-54
2020/12/27 08:02:34;;;;;;;5.47;3.00;;;;;;;;;;5060724;28;20038;-54
2020/12/27 08:05:02;;;;;;;5.57;2.80;;;;;;;;;;5076426;28;20039;-50
2020/12/27 08:07:28;;;;;;;5.10;2.70;;;;;;;;;;5067889;28;20052;-55
2020/12/27 08:09:55;;;;;;;7.68;3.17;;;;;;;;;;5073560;28;20048;-52
2020/12/27 08:12:21;;;;;;;5.35;3.20;;;;;;;;;;5072272;28;20088;-53
2020/12/27 08:14:47;;;;;;;5.00;2.85;;;;;;;;;;5075660;28;20032;-55
2020/12/27 08:17:16;;;;;;;9.98;3.70;;;;;;;;;;5068680;28;20025;-53
2020/12/27 08:19:45;;;;;;;5.20;2.88;;;;;;;;;;5070830;28;20475;-55
2020/12/27 08:22:10;;;;;;;7.25;2.83;;;;;;;;;;5073541;28;20034;-52
2020/12/27 08:24:37;;;;;;;8.45;3.00;;;;;;;;;;5061908;28;20028;-51
2020/12/27 08:27:03;;;;;;;5.25;2.85;;;;;;;;;;5072925;28;20035;-51
2020/12/27 08:29:29;;;;;;;5.22;2.80;;;;;;;;;;5075771;28;20111;-54
2020/12/27 08:32:03;;;;;;;6.47;2.65;;;;;;;;;;5067127;28;20043;-53
2020/12/27 08:34:30;;;;;;;4.40;2.95;;;;;;;;;;5069812;28;20137;-54
2020/12/27 08:36:56;;;;;;;5.90;3.10;;;;;;;;;;5073596;28;20483;-55
2020/12/27 08:39:31;;;;;;;8.60;3.30;;;;;;;;;;5078083;28;20392;-51
2020/12/27 08:42:13;;;;;;;7.40;3.03;;;;;;;;;;5072502;28;20039;-53
2020/12/27 08:44:46;;;;;;;5.05;3.05;;;;;;;;;;5079724;28;20036;-51
2020/12/27 08:47:17;;;;;;;4.93;2.65;;;;;;;;;;5084172;28;20035;-53
2020/12/27 08:49:49;;;;;;;4.57;2.80;;;;;;;;;;5085953;28;20032;-55
2020/12/27 08:52:19;;;;;;;6.53;3.00;;;;;;;;;;5074960;28;20035;-52
2020/12/27 08:54:46;;;;;;;7.00;3.05;;;;;;;;;;5074155;28;20043;-54
2020/12/27 08:57:15;;;;;;;4.47;2.90;;;;;;;;;;5083394;28;20025;-54
2020/12/27 08:59:41;;;;;;;4.20;2.75;;;;;;;;;;5063207;28;20071;-56
2020/12/27 09:02:10;;;;;;;6.25;3.63;;;;;;;;;;5070035;28;20032;-53
2020/12/27 09:04:36;;;;;;;7.22;3.60;;;;;;;;;;5059275;28;20040;-53
2020/12/27 09:07:02;;;;;;;6.00;3.47;;;;;;;;;;5067095;28;20494;-49
2020/12/27 09:09:28;;;;;;;5.43;3.22;;;;;;;;;;5086175;28;20442;-55
2020/12/27 09:11:54;;;;;;;5.82;2.90;;;;;;;;;;5065973;28;20032;-56
2020/12/27 09:14:30;;;;;;;4.15;2.80;;;;;;;;;;5078477;28;20726;-55
2020/12/27 09:16:58;;;;;;;5.57;2.63;;;;;;;;;;5054787;28;20391;-55
2020/12/27 09:19:25;;;;;;;6.28;3.13;;;;;;;;;;5078637;28;20056;-54
2020/12/27 09:21:51;;;;;;;4.07;2.72;;;;;;;;;;5088999;28;20032;-54
2020/12/27 09:24:17;;;;;;;5.65;2.63;;;;;;;;;;5078682;28;20238;-54
2020/12/27 09:26:43;;;;;;;4.65;2.72;;;;;;;;;;5071935;28;20060;-53
2020/12/27 09:29:16;;;;;;;7.65;2.60;;;;;;;;;;5077034;28;20024;-55
2020/12/27 09:31:43;;;;;;;5.72;3.20;;;;;;;;;;5085769;28;20024;-53
2020/12/27 09:34:09;;;;;;;7.15;3.20;;;;;;;;;;5053140;28;20067;-56
2020/12/27 09:36:36;;;;;;;8.30;3.10;;;;;;;;;;5086576;28;20085;-50
2020/12/27 09:39:02;;;;;;;5.03;2.75;;;;;;;;;;5082357;28;20024;-51
2020/12/27 09:41:35;;;;;;;5.88;2.60;;;;;;;;;;5091688;28;20495;-53
2020/12/27 09:44:03;;;;;;;4.22;2.80;;;;;;;;;;5085933;28;20039;-54
2020/12/27 09:46:46;;;;;;;8.25;3.20;;;;;;;;;;5065862;28;20032;-55
2020/12/27 09:49:31;;;;;;;4.70;3.10;;;;;;;;;;5079246;28;20099;-52
2020/12/27 09:52:04;;;;;;;4.82;2.78;;;;;;;;;;5091129;28;20028;-55
2020/12/27 09:54:31;;;;;;;6.90;3.10;;;;;;;;;;5075678;28;20032;-56
2020/12/27 09:56:57;;;;;;;3.70;2.45;;;;;;;;;;5075671;28;20120;-51
2020/12/27 09:59:23;;;;;;;4.65;2.83;;;;;;;;;;5062417;28;20028;-56
2020/12/27 10:01:49;;;;;;;4.28;2.78;;;;;;;;;;5068477;28;20028;-49
2020/12/27 10:04:15;;;;;;;7.53;3.47;;;;;;;;;;5067189;28;20091;-53
2020/12/27 10:06:41;;;;;;;4.65;2.90;;;;;;;;;;5070691;28;21413;-54
2020/12/27 10:09:07;;;;;;;6.95;2.85;;;;;;;;;;5070785;28;20395;-53
2020/12/27 10:11:32;;;;;;;7.03;3.40;;;;;;;;;;5055811;28;20445;-55
2020/12/27 10:13:58;;;;;;;4.95;3.30;;;;;;;;;;5069007;28;20467;-55
2020/12/27 10:16:24;;;;;;;4.93;3.15;;;;;;;;;;5069971;28;20033;-56
2020/12/27 10:18:50;;;;;;;5.80;3.00;;;;;;;;;;5063307;28;20025;-55
2020/12/27 10:21:16;;;;;;;4.45;2.95;;;;;;;;;;5061749;28;20029;-54
2020/12/27 10:23:42;;;;;;;10.95;3.25;;;;;;;;;;5065156;28;20039;-52
2020/12/27 10:26:12;;;;;;;9.10;4.03;;;;;;;;;;5060650;28;20055;-50
2020/12/27 10:28:38;;;;;;;5.30;2.75;;;;;;;;;;5069077;28;20063;-54
2020/12/27 10:31:04;;;;;;;6.85;3.42;;;;;;;;;;5068823;28;20032;-55
2020/12/27 10:33:29;;;;;;;9.15;3.38;;;;;;;;;;5064916;28;20028;-55
2020/12/27 10:35:58;;;;;;;6.93;3.15;;;;;;;;;;5074720;28;20024;-55
2020/12/27 10:38:24;;;;;;;4.85;3.20;;;;;;;;;;5064377;28;20286;-55
2020/12/27 10:40:50;;;;;;;6.22;3.45;;;;;;;;;;5079527;28;20032;-52
2020/12/27 10:43:16;;;;;;;6.78;3.42;;;;;;;;;;5069027;28;20043;-54
2020/12/27 10:45:42;;;;;;;4.75;2.67;;;;;;;;;;5065680;28;20113;-52
2020/12/27 10:48:08;;;;;;;6.97;3.80;;;;;;;;;;5073469;28;20499;-55
2020/12/27 10:50:37;;;;;;;6.97;3.80;;;;;;;;;;5064792;28;20545;-56
2020/12/27 10:53:03;;;;;;;6.82;3.53;;;;;;;;;;5068247;28;20363;-56
2020/12/27 10:55:29;;;;;;;5.72;3.20;;;;;;;;;;5062805;28;20021;-52
2020/12/27 10:57:55;;;;;;;5.38;3.17;;;;;;;;;;5067447;28;20031;-52
2020/12/27 11:00:21;;;;;;;7.38;3.47;;;;;;;;;;5061583;28;20043;-56
2020/12/27 11:02:47;;;;;;;5.68;3.22;;;;;;;;;;5063098;28;20025;-53
2020/12/27 11:05:13;;;;;;;7.45;4.13;;;;;;;;;;5075550;28;20032;-52
2020/12/27 11:07:39;;;;;;;5.47;2.60;;;;;;;;;;5070573;28;20034;-55
2020/12/27 11:10:05;;;;;;;6.85;3.38;;;;;;;;;;5077232;28;20017;-54
2020/12/27 11:12:31;;;;;;;6.82;2.78;;;;;;;;;;5062256;28;20163;-52
2020/12/27 11:14:57;;;;;;;9.45;4.22;;;;;;;;;;5067530;28;20032;-55
2020/12/27 11:17:23;;;;;;;6.88;3.65;;;;;;;;;;5075767;28;20111;-52
2020/12/27 11:19:49;;;;;;;4.82;2.80;;;;;;;;;;5075540;28;20052;-55
2020/12/27 11:22:15;;;;;;;4.93;3.28;;;;;;;;;;5081559;28;20118;-53
2020/12/27 11:24:41;;;;;;;10.38;5.65;;;;;;;;;;5081093;28;20566;-54
2020/12/27 11:27:07;;;;;;;6.60;3.53;;;;;;;;;;5087334;28;20027;-55
2020/12/27 11:29:33;;;;;;;5.63;2.88;;;;;;;;;;5079541;28;20024;-52
2020/12/27 11:31:59;;;;;;;5.53;3.65;;;;;;;;;;5075945;28;20021;-56
2020/12/27 11:34:25;;;;;;;4.85;2.67;;;;;;;;;;5073134;28;20028;-53
2020/12/27 11:36:51;;;;;;;6.00;2.97;;;;;;;;;;5070779;28;20055;-51
2020/12/27 11:39:17;;;;;;;4.25;2.83;;;;;;;;;;5072163;28;20032;-52
2020/12/27 11:41:47;;;;;;;3.97;2.63;;;;;;;;;;5079149;28;20078;-53
2020/12/27 11:44:13;;;;;;;7.97;3.97;;;;;;;;;;5066959;28;20032;-51
2020/12/27 11:46:39;;;;;;;5.03;3.15;;;;;;;;;;5065665;28;20495;-54
2020/12/27 11:49:07;;;;;;;7.78;3.38;;;;;;;;;;5073419;28;20032;-55
2020/12/27 11:51:33;;;;;;;5.30;3.00;;;;;;;;;;5072978;28;20032;-56
2020/12/27 11:53:59;;;;;;;4.13;2.58;;;;;;;;;;5071662;28;20042;-51
2020/12/27 11:56:24;;;;;;;5.00;2.92;;;;;;;;;;5072368;28;20020;-55
2020/12/27 11:58:50;;;;;;;4.63;2.92;;;;;;;;;;5072015;28;20460;-49
2020/12/27 12:01:17;;;;;;;5.05;2.90;;;;;;;;;;5072089;28;20767;-52
2020/12/27 12:03:44;;;;;;;5.70;3.13;;;;;;;;;;5073825;28;20038;-56
2020/12/27 12:06:13;;;;;;;9.10;3.20;;;;;;;;;;5078264;28;20092;-53
2020/12/27 12:08:39;;;;;;;7.05;3.13;;;;;;;;;;5066709;28;20399;-54
2020/12/27 12:11:05;;;;;;;4.78;2.70;;;;;;;;;;5066857;28;20386;-53
2020/12/27 12:13:31;;;;;;;4.18;3.03;;;;;;;;;;5067677;28;20028;-56
2020/12/27 12:15:57;;;;;;;6.03;3.35;;;;;;;;;;5070300;28;20032;-55
2020/12/27 12:18:23;;;;;;;5.43;3.20;;;;;;;;;;5071503;28;20531;-52
2020/12/27 12:20:51;;;;;;;5.47;2.70;;;;;;;;;;5068413;28;20381;-52
2020/12/27 12:23:17;;;;;;;6.38;3.50;;;;;;;;;;5066621;28;20127;-56
2020/12/27 12:25:43;;;;;;;5.75;2.80;;;;;;;;;;5069708;28;20043;-53
2020/12/27 12:28:09;;;;;;;6.82;3.17;;;;;;;;;;5072743;28;20032;-55
2020/12/27 12:30:35;;;;;;;6.25;4.50;;;;;;;;;;5068475;28;20076;-53
2020/12/27 12:33:01;;;;;;;4.35;3.08;;;;;;;;;;5077444;28;20442;-50
2020/12/27 12:35:27;;;;;;;6.65;3.35;;;;;;;;;;5070657;28;20021;-56
2020/12/27 12:37:53;;;;;;;10.30;4.93;;;;;;;;;;5071034;28;20158;-52
2020/12/27 12:40:19;;;;;;;5.57;3.35;;;;;;;;;;5066276;28;20023;-53
2020/12/27 12:42:45;;;;;;;4.43;3.08;;;;;;;;;;5069318;28;20456;-54
2020/12/27 12:45:11;;;;;;;4.00;2.65;;;;;;;;;;5068366;28;20017;-50
2020/12/27 12:47:38;;;;;;;6.03;3.40;;;;;;;;;;5068252;28;20047;-56
2020/12/27 12:50:04;;;;;;;4.15;2.83;;;;;;;;;;5066865;28;20021;-52
2020/12/27 12:52:30;;;;;;;5.03;2.88;;;;;;;;;;5067712;28;20028;-53
2020/12/27 12:54:57;;;;;;;3.78;2.55;;;;;;;;;;5068075;28;20461;-53
2020/12/27 12:57:23;;;;;;;4.55;2.38;;;;;;;;;;5066213;28;20519;-56
2020/12/27 12:59:49;;;;;;;2.80;1.95;;;;;;;;;;5065454;28;20029;-56
2020/12/27 13:02:15;;;;;;;2.95;2.10;;;;;;;;;;5066646;28;20037;-51
2020/12/27 13:04:42;;;;;;;6.05;3.30;;;;;;;;;;5067747;28;20058;-53
2020/12/27 13:07:08;;;;;;;5.65;2.42;;;;;;;;;;5067157;28;20115;-50
2020/12/27 13:09:34;;;;;;;6.40;2.10;;;;;;;;;;5067046;28;20085;-53
2020/12/27 13:12:00;;;;;;;3.90;2.10;;;;;;;;;;5066958;28;20395;-55
2020/12/27 13:14:26;;;;;;;5.57;2.80;;;;;;;;;;5068098;28;20029;-52
2020/12/27 13:16:52;;;;;;;1.95;1.50;;;;;;;;;;5066716;28;20090;-53
2020/12/27 13:19:18;;;;;;;8.73;2.25;;;;;;;;;;5068700;28;20032;-54
2020/12/27 13:21:44;;;;;;;2.85;1.83;;;;;;;;;;5065484;28;20036;-51
2020/12/27 13:24:10;;;;;;;2.17;1.77;;;;;;;;;;5068904;28;20039;-55
2020/12/27 13:26:36;;;;;;;4.13;2.47;;;;;;;;;;5067160;28;20024;-52
2020/12/27 13:29:02;;;;;;;3.53;2.10;;;;;;;;;;5065946;28;20075;-55
2020/12/27 13:31:28;;;;;;;3.45;1.92;;;;;;;;;;5065165;28;20040;-53
2020/12/27 13:33:54;;;;;;;3.85;1.98;;;;;;;;;;5062217;28;20027;-54
2020/12/27 13:36:20;;;;;;;3.00;1.65;;;;;;;;;;5064921;28;20031;-54
2020/12/27 13:38:46;;;;;;;2.40;1.70;;;;;;;;;;5061393;28;20024;-51
2020/12/27 13:41:12;;;;;;;4.05;2.17;;;;;;;;;;5065913;28;20043;-51
2020/12/27 13:43:38;;;;;;;3.90;1.67;;;;;;;;;;5066641;28;20037;-53
2020/12/27 13:46:04;;;;;;;3.40;2.08;;;;;;;;;;5062209;28;20050;-52
2020/12/27 13:48:30;;;;;;;4.32;1.90;;;;;;;;;;5063168;28;20030;-51
2020/12/27 13:50:56;;;;;;;3.50;1.58;;;;;;;;;;5065105;28;20111;-51
2020/12/27 13:53:22;;;;;;;8.25;2.28;;;;;;;;;;5068014;28;20047;-55
2020/12/27 13:55:48;;;;;;;5.70;3.30;;;;;;;;;;5064605;28;20032;-54
2020/12/27 13:58:14;;;;;;;6.20;2.10;;;;;;;;;;5058621;28;20028;-50
2020/12/27 14:00:40;;;;;;;4.57;2.13;;;;;;;;;;5056397;28;20025;-50
2020/12/27 14:03:06;;;;;;;4.75;2.30;;;;;;;;;;5064149;28;20020;-53
2020/12/27 14:05:32;;;;;;;7.07;3.17;;;;;;;;;;5066703;28;20033;-56
2020/12/27 14:07:58;;;;;;;6.95;3.22;;;;;;;;;;5060676;28;20032;-54
2020/12/27 14:10:24;;;;;;;4.90;2.15;;;;;;;;;;5060592;28;20024;-53
2020/12/27 14:12:50;;;;;;;3.65;2.08;;;;;;;;;;5067229;28;20454;-52
2020/12/27 14:15:16;;;;;;;4.05;2.20;;;;;;;;;;5067626;28;20523;-51
2020/12/27 14:17:42;;;;;;;13.23;5.95;;;;;;;;;;5063526;28;20032;-52
2020/12/27 14:20:07;;;;;;;5.65;2.85;;;;;;;;;;5068436;28;20025;-50
2020/12/27 14:22:33;;;;;;;5.35;1.92;;;;;;;;;;5072743;28;20170;-54
2020/12/27 14:24:59;;;;;;;3.75;2.25;;;;;;;;;;5066241;28;20032;-52
2020/12/27 14:27:25;;;;;;;4.13;2.28;;;;;;;;;;5070513;28;20035;-54
2020/12/27 14:29:51;;;;;;;3.63;2.38;;;;;;;;;;5064105;28;20051;-50
2020/12/27 14:32:17;;;;;;;5.15;2.78;;;;;;;;;;5065269;28;20039;-52
2020/12/27 14:34:43;;;;;;;5.07;2.97;;;;;;;;;;5073879;28;20024;-56
2020/12/27 14:37:09;;;;;;;4.53;3.05;;;;;;;;;;5065940;28;20036;-54
2020/12/27 14:39:35;;;;;;;6.22;3.47;;;;;;;;;;5058646;28;20078;-56